createdAt,value
2017-07-04T00:01:06.710Z,59.80
2017-07-04T00:03:34.829Z,59.80
2017-07-04T00:06:03.689Z,60.00
2017-07-04T00:08:31.803Z,60.00
2017-07-04T00:11:00.656Z,60.70
2017-07-04T00:13:28.904Z,60.70
2017-07-04T00:15:57.001Z,60.70
2017-07-04T00:18:25.101Z,60.80
2017-07-04T00:20:53.233Z,60.80
2017-07-04T00:23:21.355Z,61.20
2017-07-04T00:25:49.444Z,60.90
2017-07-04T00:28:17.545Z,61.20
2017-07-04T00:30:45.772Z,61.20
2017-07-04T00:33:13.864Z,61.10
2017-07-04T00:35:41.983Z,61.00
2017-07-04T00:38:10.081Z,61.00
2017-07-04T00:40:38.214Z,61.10
2017-07-04T00:43:07.069Z,61.00
2017-07-04T00:45:35.160Z,60.90
2017-07-04T00:48:03.395Z,60.80
2017-07-04T00:50:31.501Z,60.70
2017-07-04T00:52:59.625Z,60.40
2017-07-04T00:55:28.471Z,60.80
2017-07-04T00:57:56.612Z,60.80
2017-07-04T01:00:25.482Z,61.30
2017-07-04T01:02:54.337Z,61.10
2017-07-04T01:05:22.564Z,61.10
2017-07-04T01:07:51.422Z,61.20
2017-07-04T01:10:19.562Z,61.10
2017-07-04T01:12:47.656Z,61.20
2017-07-04T01:15:15.753Z,61.00
2017-07-04T01:17:43.880Z,60.90
2017-07-04T01:20:11.973Z,61.10
2017-07-04T01:22:40.221Z,61.10
2017-07-04T01:25:09.080Z,61.30
2017-07-04T01:27:37.174Z,61.20
2017-07-04T01:30:05.296Z,61.30
2017-07-04T01:32:33.392Z,61.30
2017-07-04T01:35:01.520Z,61.20
2017-07-04T01:37:30.397Z,61.40
2017-07-04T01:39:58.488Z,61.30
2017-07-04T01:42:27.485Z,61.30
2017-07-04T01:44:56.352Z,61.00
2017-07-04T01:47:24.477Z,61.30
2017-07-04T01:49:52.568Z,61.00
2017-07-04T01:52:20.699Z,61.40
2017-07-04T01:54:48.792Z,61.20
2017-07-04T01:57:17.648Z,61.30
2017-07-04T01:59:45.892Z,61.30
2017-07-04T02:02:13.980Z,61.10
2017-07-04T02:04:42.104Z,60.60
2017-07-04T02:07:10.199Z,60.60
2017-07-04T02:09:39.084Z,60.60
2017-07-04T02:12:07.968Z,61.10
2017-07-04T02:14:36.066Z,61.10
2017-07-04T02:17:04.921Z,61.20
2017-07-04T02:19:33.172Z,61.20
2017-07-04T02:22:01.271Z,61.30
2017-07-04T02:24:30.627Z,61.50
2017-07-04T02:26:58.725Z,61.30
2017-07-04T02:29:26.823Z,61.50
2017-07-04T02:31:54.941Z,61.50
2017-07-04T02:34:23.935Z,61.30
2017-07-04T02:36:52.831Z,61.10
2017-07-04T02:39:20.925Z,61.10
2017-07-04T02:41:49.026Z,62.00
2017-07-04T02:44:17.147Z,61.30
2017-07-04T02:46:45.289Z,61.30
2017-07-04T02:49:13.391Z,61.40
2017-07-04T02:51:41.484Z,61.60
2017-07-04T02:54:09.721Z,61.60
2017-07-04T02:56:37.812Z,61.60
2017-07-04T02:59:05.897Z,61.80
2017-07-04T03:01:34.053Z,61.80
2017-07-04T03:04:02.165Z,60.90
2017-07-04T03:06:30.293Z,61.00
2017-07-04T03:08:58.381Z,61.00
2017-07-04T03:11:26.493Z,61.00
2017-07-04T03:13:54.625Z,61.10
2017-07-04T03:16:22.720Z,60.90
2017-07-04T03:18:50.810Z,61.20
2017-07-04T03:21:19.065Z,61.20
2017-07-04T03:23:47.160Z,61.90
2017-07-04T03:26:15.286Z,61.30
2017-07-04T03:28:44.176Z,61.20
2017-07-04T03:31:13.035Z,61.30
2017-07-04T03:33:41.273Z,61.30
2017-07-04T03:36:09.364Z,61.20
2017-07-04T03:38:37.487Z,61.20
2017-07-04T03:41:05.591Z,61.60
2017-07-04T03:43:33.695Z,62.00
2017-07-04T03:46:01.812Z,61.50
2017-07-04T03:48:29.901Z,61.60
2017-07-04T03:50:58.769Z,62.80
2017-07-04T03:53:26.997Z,62.10
2017-07-04T03:55:55.093Z,62.30
2017-07-04T03:58:23.215Z,62.20
2017-07-04T04:00:51.312Z,62.10
2017-07-04T04:03:20.216Z,62.40
2017-07-04T04:05:48.304Z,62.40
2017-07-04T04:08:16.404Z,62.10
2017-07-04T04:10:44.638Z,62.20
2017-07-04T04:13:13.496Z,62.10
2017-07-04T04:15:41.588Z,62.00
2017-07-04T04:18:09.729Z,62.10
2017-07-04T04:20:37.889Z,62.10
2017-07-04T04:23:06.023Z,62.40
2017-07-04T04:25:34.110Z,62.60
2017-07-04T04:28:02.966Z,62.20
2017-07-04T04:30:31.204Z,62.20
2017-07-04T04:32:59.300Z,62.20
2017-07-04T04:35:27.392Z,62.10
2017-07-04T04:37:55.520Z,61.80
2017-07-04T04:40:24.408Z,61.80
2017-07-04T04:42:52.512Z,61.90
2017-07-04T04:45:20.641Z,61.80
2017-07-04T04:47:48.732Z,61.80
2017-07-04T04:50:16.841Z,61.50
2017-07-04T04:52:45.074Z,61.80
2017-07-04T04:55:13.168Z,62.30
2017-07-04T04:57:41.292Z,62.00
2017-07-04T05:00:09.400Z,61.70
2017-07-04T05:02:37.522Z,62.00
2017-07-04T05:05:05.623Z,61.70
2017-07-04T05:07:33.894Z,61.80
2017-07-04T05:10:01.986Z,61.80
2017-07-04T05:12:30.092Z,62.00
2017-07-04T05:14:58.291Z,62.20
2017-07-04T05:17:26.391Z,61.80
2017-07-04T05:19:54.486Z,61.70
2017-07-04T05:22:22.625Z,62.00
2017-07-04T05:24:50.708Z,62.00
2017-07-04T05:27:19.740Z,61.70
2017-07-04T05:29:47.821Z,61.70
2017-07-04T05:32:17.267Z,62.10
2017-07-04T05:34:45.361Z,62.50
2017-07-04T05:37:14.252Z,61.50
2017-07-04T05:39:43.125Z,62.30
2017-07-04T05:42:11.226Z,62.30
2017-07-04T05:44:40.108Z,62.90
2017-07-04T05:47:08.220Z,62.90
2017-07-04T05:49:37.228Z,63.10
2017-07-04T05:52:05.327Z,63.00
2017-07-04T05:54:33.458Z,62.30
2017-07-04T05:57:02.331Z,62.40
2017-07-04T05:59:30.432Z,62.40
2017-07-04T06:01:59.318Z,62.30
2017-07-04T06:04:28.185Z,62.20
2017-07-04T06:06:56.425Z,62.10
2017-07-04T10:14:07.060Z,62.30
2017-07-04T10:16:35.916Z,51.50
2017-07-04T10:19:04.033Z,51.50
2017-07-04T10:21:32.897Z,47.70
2017-07-04T10:24:01.023Z,47.70
2017-07-04T10:26:29.129Z,49.20
2017-07-04T10:28:57.231Z,50.00
2017-07-04T10:31:26.128Z,49.00
2017-07-04T10:33:54.234Z,47.90
2017-07-04T10:36:23.116Z,48.00
2017-07-04T10:38:51.219Z,48.10
2017-07-04T10:41:19.359Z,46.40
2017-07-04T10:43:48.232Z,47.70
2017-07-04T10:46:16.320Z,47.10
2017-07-04T10:48:44.473Z,48.80
2017-07-04T10:51:12.561Z,49.50
2017-07-04T10:53:40.706Z,47.70
2017-07-04T10:56:08.804Z,47.50
2017-07-04T10:58:36.943Z,50.80
2017-07-04T11:01:05.068Z,47.90
2017-07-04T11:03:33.172Z,50.10
2017-07-04T11:06:02.195Z,48.20
2017-07-04T11:08:30.303Z,48.20
2017-07-04T11:10:58.395Z,47.50
2017-07-04T11:13:26.534Z,47.60
2017-07-04T11:15:54.680Z,47.00
2017-07-04T11:18:23.595Z,48.50
2017-07-04T11:20:52.461Z,49.50
2017-07-04T11:23:20.561Z,49.50
2017-07-04T11:25:48.844Z,46.60
2017-07-04T11:28:17.703Z,48.50
2017-07-04T11:30:45.864Z,48.40
2017-07-04T11:33:13.962Z,47.10
2017-07-04T11:35:42.097Z,47.20
2017-07-04T11:38:10.194Z,46.40
2017-07-04T11:40:38.313Z,47.00
2017-07-04T11:43:07.178Z,48.60
2017-07-04T11:45:35.402Z,48.60
2017-07-04T11:48:03.500Z,47.80
2017-07-04T11:50:31.652Z,45.60
2017-07-04T11:53:00.505Z,45.30
2017-07-04T11:55:28.616Z,45.30
2017-07-04T11:57:57.517Z,47.90
2017-07-04T12:00:26.526Z,45.10
2017-07-04T12:02:54.624Z,45.00
2017-07-04T12:05:22.755Z,43.90
2017-07-04T12:07:51.619Z,43.80
2017-07-04T12:10:19.853Z,43.70
2017-07-04T12:12:47.950Z,45.70
2017-07-04T12:15:16.040Z,44.60
2017-07-04T12:17:44.176Z,41.60
2017-07-04T12:20:13.049Z,42.80
2017-07-04T12:22:41.148Z,42.80
2017-07-04T12:25:10.040Z,42.50
2017-07-04T12:27:38.902Z,44.40
2017-07-04T12:30:07.060Z,44.40
2017-07-04T12:32:35.160Z,41.90
2017-07-04T12:35:03.312Z,40.70
2017-07-04T12:37:31.412Z,40.40
2017-07-04T12:39:59.510Z,40.70
2017-07-04T12:42:28.399Z,40.70
2017-07-04T12:44:56.498Z,40.60
2017-07-04T12:47:25.353Z,42.30
2017-07-04T12:49:53.588Z,42.30
2017-07-04T12:52:21.689Z,41.70
2017-07-04T12:54:49.941Z,41.70
2017-07-04T12:57:18.041Z,39.50
2017-07-04T12:59:46.168Z,38.30
2017-07-04T13:02:15.048Z,39.80
2017-07-04T13:04:43.159Z,39.60
2017-07-04T13:07:12.037Z,39.60
2017-07-04T13:09:40.144Z,39.60
2017-07-04T13:12:08.254Z,39.40
2017-07-04T13:14:36.479Z,40.90
2017-07-04T13:17:04.569Z,40.20
2017-07-04T13:19:32.702Z,40.30
2017-07-04T13:22:00.811Z,42.50
2017-07-04T13:24:28.927Z,41.70
2017-07-04T13:26:57.160Z,40.20
2017-07-04T13:29:25.256Z,41.20
2017-07-04T13:31:53.365Z,41.40
2017-07-04T13:34:21.502Z,40.30
2017-07-04T13:36:49.626Z,39.50
2017-07-04T13:39:17.755Z,39.90
2017-07-04T13:41:45.843Z,38.80
2017-07-04T13:44:13.945Z,40.10
2017-07-04T13:46:42.170Z,40.10
2017-07-04T13:49:11.039Z,42.00
2017-07-04T13:51:39.158Z,42.00
2017-07-04T13:54:07.250Z,40.00
2017-07-04T13:56:35.382Z,42.60
2017-07-04T13:59:03.463Z,43.00
2017-07-04T14:01:33.093Z,39.10
2017-07-04T14:04:01.248Z,39.10
2017-07-04T14:06:29.335Z,40.10
2017-07-04T14:08:58.193Z,37.90
2017-07-04T14:11:26.322Z,37.70
2017-07-04T14:13:55.173Z,39.20
2017-07-04T14:16:23.316Z,38.90
2017-07-04T14:18:51.427Z,38.60
2017-07-04T14:21:19.517Z,38.10
2017-07-04T14:23:47.649Z,37.90
2017-07-04T14:26:15.739Z,39.20
2017-07-04T14:28:43.828Z,39.60
2017-07-04T14:31:11.979Z,40.10
2017-07-04T14:33:40.072Z,39.40
2017-07-04T14:36:08.222Z,39.00
2017-07-04T14:38:36.325Z,39.30
2017-07-04T14:41:04.446Z,39.60
2017-07-04T14:43:32.557Z,39.20
2017-07-04T14:46:00.665Z,38.90
2017-07-04T14:48:28.815Z,39.50
2017-07-04T14:50:56.917Z,37.90
2017-07-04T14:53:25.057Z,39.60
2017-07-04T14:55:53.208Z,38.90
2017-07-04T14:58:21.297Z,40.20
2017-07-04T15:00:50.191Z,39.20
2017-07-04T15:03:19.077Z,40.20
2017-07-04T15:05:47.929Z,39.40
2017-07-04T15:08:16.173Z,39.20
2017-07-04T15:10:44.274Z,38.30
2017-07-04T15:13:12.397Z,38.00
2017-07-04T15:15:40.497Z,39.70
2017-07-04T15:18:08.589Z,39.00
2017-07-04T15:20:36.716Z,40.00
2017-07-04T15:23:04.801Z,39.10
2017-07-04T15:25:33.034Z,39.60
2017-07-04T15:28:01.120Z,38.80
2017-07-04T15:30:29.264Z,39.00
2017-07-04T15:32:57.370Z,40.20
2017-07-04T15:35:25.490Z,39.40
2017-07-04T15:37:53.613Z,38.80
2017-07-04T15:40:21.852Z,38.70
2017-07-04T15:42:50.721Z,39.50
2017-07-04T15:45:18.849Z,39.40
2017-07-04T15:47:46.978Z,38.30
2017-07-04T15:50:15.069Z,38.20
2017-07-04T15:52:43.202Z,39.00
2017-07-04T15:55:11.277Z,37.90
2017-07-04T15:57:39.528Z,39.50
2017-07-04T16:00:08.390Z,37.30
2017-07-04T16:02:36.517Z,37.30
2017-07-04T16:05:04.616Z,37.60
2017-07-04T16:07:32.746Z,38.70
2017-07-04T16:10:01.605Z,38.80
2017-07-04T16:12:29.870Z,38.90
2017-07-04T16:14:57.964Z,36.50
2017-07-04T16:17:26.057Z,37.90
2017-07-04T16:19:54.177Z,38.40
2017-07-04T16:22:22.286Z,37.90
2017-07-04T16:24:50.412Z,38.10
2017-07-04T16:27:19.274Z,37.50
2017-07-04T16:29:47.361Z,37.40
2017-07-04T16:32:15.594Z,37.90
2017-07-04T16:34:43.742Z,38.50
2017-07-04T16:37:12.694Z,38.00
2017-07-04T16:39:40.782Z,38.00
2017-07-04T16:42:08.909Z,38.30
2017-07-04T16:44:37.149Z,39.20
2017-07-04T16:47:05.241Z,38.10
2017-07-04T16:49:34.181Z,38.30
2017-07-04T16:52:02.267Z,38.30
2017-07-04T16:54:30.358Z,38.00
2017-07-04T16:56:58.499Z,39.10
2017-07-04T16:59:26.605Z,38.70
2017-07-04T17:01:54.756Z,40.10
2017-07-04T17:04:22.869Z,40.10
2017-07-04T17:06:50.963Z,38.50
2017-07-04T17:09:19.194Z,39.70
2017-07-04T17:11:47.283Z,38.70
2017-07-04T17:14:15.411Z,39.80
2017-07-04T17:16:44.270Z,39.60
2017-07-04T17:19:12.406Z,39.60
2017-07-04T17:21:40.505Z,39.80
2017-07-04T17:24:08.625Z,39.60
2017-07-04T17:26:36.857Z,40.20
2017-07-04T17:29:04.969Z,39.70
2017-07-04T17:31:33.113Z,40.30
2017-07-04T17:34:01.203Z,41.00
2017-07-04T17:36:29.314Z,40.20
2017-07-04T17:38:57.437Z,40.60
2017-07-04T17:41:25.685Z,41.40
2017-07-04T17:43:53.798Z,40.40
2017-07-04T17:46:21.938Z,40.80
2017-07-04T17:48:50.814Z,41.20
2017-07-04T17:51:18.925Z,41.10
2017-07-04T17:53:47.066Z,40.60
2017-07-04T17:56:15.165Z,40.10
2017-07-04T17:58:43.278Z,41.30
2017-07-04T18:01:11.545Z,41.50
2017-07-04T18:03:39.645Z,41.10
2017-07-04T18:06:07.750Z,41.00
2017-07-04T18:08:35.881Z,41.10
2017-07-04T18:11:03.978Z,42.80
2017-07-04T18:13:32.128Z,41.10
2017-07-04T18:16:00.231Z,41.70
2017-07-04T18:18:28.322Z,42.40
2017-07-04T18:20:56.563Z,42.50
2017-07-04T18:23:24.696Z,42.30
2017-07-04T18:25:52.785Z,41.50
2017-07-04T18:28:21.660Z,41.70
2017-07-04T18:30:51.037Z,41.70
2017-07-04T18:33:19.157Z,41.40
2017-07-04T18:35:48.094Z,42.70
2017-07-04T18:38:16.190Z,42.40
2017-07-04T18:40:44.317Z,42.50
2017-07-04T18:43:13.223Z,43.00
2017-07-04T18:45:41.372Z,43.00
2017-07-04T18:48:09.478Z,43.60
2017-07-04T18:50:37.586Z,44.60
2017-07-04T18:53:05.710Z,44.30
2017-07-04T18:55:33.854Z,44.60
2017-07-04T18:58:01.985Z,44.90
2017-07-04T19:00:30.104Z,44.90
2017-07-04T19:02:58.290Z,45.20
2017-07-04T19:05:26.401Z,45.10
2017-07-04T19:07:54.498Z,45.60
2017-07-04T19:10:23.968Z,45.40
2017-07-04T19:12:52.102Z,45.00
2017-07-04T19:15:20.212Z,45.10
2017-07-04T19:17:48.330Z,45.40
2017-07-04T19:20:16.464Z,45.60
2017-07-04T19:22:44.586Z,45.70
2017-07-04T19:25:13.469Z,46.00
2017-07-04T19:27:42.470Z,46.80
2017-07-04T19:30:10.581Z,46.20
2017-07-04T19:32:38.738Z,46.20
2017-07-04T19:35:06.846Z,46.20
2017-07-04T19:37:34.932Z,46.40
2017-07-04T19:40:03.062Z,46.40
2017-07-04T19:42:31.183Z,46.60
2017-07-04T19:44:59.289Z,46.40
2017-07-04T19:47:27.413Z,46.90
2017-07-04T19:49:55.515Z,46.80
2017-07-04T19:52:23.776Z,47.10
2017-07-04T19:54:51.882Z,47.40
2017-07-04T19:57:20.028Z,47.50
2017-07-04T19:59:48.190Z,47.40
2017-07-04T20:02:17.278Z,47.70
2017-07-04T20:04:45.458Z,47.90
2017-07-04T20:07:13.545Z,48.10
2017-07-04T20:09:41.666Z,48.30
2017-07-04T20:12:09.814Z,48.30
2017-07-04T20:14:37.913Z,48.30
2017-07-04T20:17:06.044Z,48.40
2017-07-04T20:19:34.219Z,48.40
2017-07-04T20:22:03.101Z,48.80
2017-07-04T20:24:31.189Z,48.70
2017-07-04T20:27:00.107Z,49.00
2017-07-04T20:29:28.212Z,48.90
2017-07-04T20:31:56.334Z,48.80
2017-07-04T20:34:24.470Z,49.30
2017-07-04T20:36:52.585Z,49.40
2017-07-04T20:39:20.857Z,49.60
2017-07-04T20:41:48.967Z,49.80
2017-07-04T20:44:17.093Z,50.00
2017-07-04T20:46:45.193Z,50.10
2017-07-04T20:49:14.079Z,50.50
2017-07-04T20:51:42.221Z,50.30
2017-07-04T20:54:10.318Z,50.40
2017-07-04T20:56:38.557Z,50.40
2017-07-04T20:59:06.669Z,50.60
2017-07-04T21:01:34.805Z,50.80
2017-07-04T21:04:02.919Z,51.00
2017-07-04T21:06:31.011Z,50.70
2017-07-04T21:08:59.132Z,51.30
2017-07-04T21:11:27.225Z,51.30
2017-07-04T21:13:55.482Z,51.30
2017-07-04T21:16:23.618Z,51.60
2017-07-04T21:18:51.699Z,51.60
2017-07-04T21:21:19.837Z,51.70
2017-07-04T21:23:47.943Z,52.00
2017-07-04T21:26:16.046Z,52.20
2017-07-04T21:28:44.944Z,52.70
2017-07-04T21:31:13.818Z,52.70
2017-07-04T21:33:42.049Z,53.00
2017-07-04T21:36:10.151Z,52.30
2017-07-04T21:38:38.247Z,52.30
2017-07-04T21:41:06.389Z,52.50
2017-07-04T21:43:34.489Z,52.70
2017-07-04T21:46:02.613Z,52.90
2017-07-04T21:48:31.484Z,53.20
2017-07-04T21:50:59.712Z,53.20
2017-07-04T21:53:27.825Z,53.10
2017-07-04T21:55:55.929Z,53.30
2017-07-04T21:58:24.095Z,53.30
2017-07-04T22:00:52.324Z,53.40
2017-07-04T22:03:20.432Z,53.30
2017-07-04T22:05:48.583Z,53.60
2017-07-04T22:08:16.709Z,53.70
2017-07-04T22:10:44.839Z,53.70
2017-07-04T22:13:12.969Z,54.00
2017-07-04T22:15:41.066Z,54.10
2017-07-04T22:18:10.080Z,54.50
2017-07-04T22:20:38.193Z,54.50
2017-07-04T22:23:06.293Z,54.70
2017-07-04T22:25:35.198Z,54.80
2017-07-04T22:28:04.078Z,54.80
2017-07-04T22:30:32.320Z,54.80
2017-07-04T22:33:00.436Z,54.80
2017-07-04T22:35:28.589Z,54.90
2017-07-04T22:37:56.717Z,54.80
2017-07-04T22:40:24.826Z,55.10
2017-07-04T22:42:52.960Z,55.30
2017-07-04T22:45:21.840Z,55.70
2017-07-04T22:47:50.085Z,55.70
2017-07-04T22:50:18.191Z,55.60
2017-07-04T22:52:46.308Z,55.50
2017-07-04T22:55:14.544Z,55.60
2017-07-04T22:57:42.641Z,55.90
2017-07-04T23:00:10.765Z,56.10
2017-07-04T23:02:38.888Z,56.00
2017-07-04T23:05:07.812Z,56.90
2017-07-04T23:07:35.898Z,56.40
2017-07-04T23:10:04.006Z,56.40
2017-07-04T23:12:32.101Z,56.30
2017-07-04T23:15:00.350Z,56.40
2017-07-04T23:17:28.453Z,56.70
2017-07-04T23:19:56.550Z,56.70
2017-07-04T23:22:24.680Z,56.70
2017-07-04T23:24:52.781Z,56.60
2017-07-04T23:27:20.985Z,56.90
2017-07-04T23:29:49.027Z,56.90
2017-07-04T23:32:17.127Z,57.10
2017-07-04T23:34:45.373Z,57.00
2017-07-04T23:37:13.485Z,57.00
2017-07-04T23:39:41.606Z,57.40
2017-07-04T23:42:09.713Z,57.50
2017-07-04T23:44:37.838Z,57.70
2017-07-04T23:47:06.713Z,57.70
2017-07-04T23:49:34.816Z,57.70
2017-07-04T23:52:03.057Z,57.80
2017-07-04T23:54:31.165Z,57.80
2017-07-04T23:56:59.288Z,58.00
2017-07-04T23:59:27.389Z,58.20
